createdAt,value
2023-01-04T00:00:36.517Z,7.13
2023-01-04T00:03:05.622Z,11.87
2023-01-04T00:05:33.974Z,6.77
2023-01-04T00:08:05.349Z,9.33
2023-01-04T00:10:33.951Z,8.00
2023-01-04T00:13:02.528Z,4.77
2023-01-04T00:15:32.396Z,7.70
2023-01-04T00:18:00.698Z,9.60
2023-01-04T00:20:29.195Z,4.77
2023-01-04T00:22:57.690Z,8.40
2023-01-04T00:25:26.467Z,5.57
2023-01-04T00:27:54.997Z,8.23
2023-01-04T00:30:24.014Z,4.00
2023-01-04T00:32:54.064Z,11.57
2023-01-04T00:35:44.572Z,14.60
2023-01-04T00:38:11.067Z,7.37
2023-01-04T00:40:39.691Z,9.67
2023-01-04T00:43:08.065Z,7.67
2023-01-04T00:45:36.378Z,8.80
2023-01-04T00:48:06.670Z,7.03
2023-01-04T00:50:35.324Z,10.10
2023-01-04T00:53:04.091Z,4.57
2023-01-04T00:55:32.712Z,9.07
2023-01-04T00:58:01.198Z,6.30
2023-01-04T01:00:29.588Z,10.50
2023-01-04T01:02:58.662Z,9.33
2023-01-04T01:05:32.121Z,7.60
2023-01-04T01:08:20.879Z,5.93
2023-01-04T01:10:49.529Z,5.80
2023-01-04T01:13:18.755Z,7.80
2023-01-04T01:15:47.489Z,6.63
2023-01-04T01:18:16.111Z,9.87
2023-01-04T01:20:46.938Z,10.77
2023-01-04T01:23:16.357Z,11.00
2023-01-04T01:25:44.869Z,11.10
2023-01-04T01:28:15.748Z,7.47
2023-01-04T01:30:44.837Z,9.67
2023-01-04T01:33:13.237Z,9.13
2023-01-04T01:35:41.686Z,7.37
2023-01-04T01:38:11.515Z,6.17
2023-01-04T01:40:42.957Z,7.40
2023-01-04T01:43:18.929Z,5.20
2023-01-04T01:45:50.654Z,7.20
2023-01-04T01:48:24.354Z,11.27
2023-01-04T01:50:57.845Z,7.53
2023-01-04T01:53:30.094Z,8.47
2023-01-04T01:55:59.869Z,9.10
2023-01-04T01:58:35.820Z,8.70
2023-01-04T02:01:04.686Z,7.83
2023-01-04T02:03:36.572Z,7.07
2023-01-04T02:06:08.629Z,6.20
2023-01-04T02:08:39.358Z,6.40
2023-01-04T02:11:08.020Z,9.60
2023-01-04T02:13:56.759Z,10.33
2023-01-04T02:16:33.583Z,10.93
2023-01-04T02:19:15.773Z,8.20
2023-01-04T02:21:59.894Z,5.87
2023-01-04T02:24:47.759Z,4.63
2023-01-04T02:27:37.391Z,7.83
2023-01-04T02:30:34.315Z,3.40
2023-01-04T02:33:16.782Z,4.70
2023-01-04T02:35:54.717Z,4.87
2023-01-04T02:38:27.165Z,7.73
2023-01-04T02:41:07.497Z,7.97
2023-01-04T02:44:03.578Z,4.87
2023-01-04T02:46:36.663Z,3.97
2023-01-04T02:49:24.559Z,2.43
2023-01-04T02:51:53.549Z,2.50
2023-01-04T02:54:27.370Z,12.47
2023-01-04T02:57:23.704Z,1.43
2023-01-04T03:00:11.549Z,5.20
2023-01-04T03:03:14.065Z,1.67
2023-01-04T03:06:15.084Z,2.13
2023-01-04T03:08:55.605Z,2.23
2023-01-04T03:11:46.934Z,5.30
2023-01-04T03:14:32.112Z,1.23
2023-01-04T03:17:06.281Z,2.57
2023-01-04T03:19:55.169Z,7.87
2023-01-04T03:22:48.010Z,2.37
2023-01-04T03:25:37.295Z,2.43
2023-01-04T03:28:26.859Z,1.90
2023-01-04T03:31:20.802Z,2.03
2023-01-04T03:34:07.713Z,1.90
2023-01-04T03:36:47.239Z,3.37
2023-01-04T03:39:42.670Z,5.70
2023-01-04T03:42:36.741Z,2.93
2023-01-04T03:45:32.594Z,4.30
2023-01-04T03:48:26.944Z,2.70
2023-01-04T03:51:04.774Z,1.37
2023-01-04T03:53:37.038Z,0.97
2023-01-04T03:56:10.559Z,1.23
2023-01-04T03:58:39.629Z,1.13
2023-01-04T04:01:08.968Z,0.87
2023-01-04T04:03:54.709Z,2.97
2023-01-04T04:06:40.966Z,0.87
2023-01-04T04:09:09.749Z,1.23
2023-01-04T04:11:39.632Z,1.80
2023-01-04T04:14:08.252Z,0.97
2023-01-04T04:16:37.035Z,2.10
2023-01-04T04:19:08.730Z,0.73
2023-01-04T04:21:38.210Z,1.93
2023-01-04T04:24:07.879Z,1.53
2023-01-04T04:26:36.901Z,0.33
2023-01-04T04:29:06.827Z,1.60
2023-01-04T04:31:35.343Z,4.00
2023-01-04T04:34:04.246Z,4.60
2023-01-04T04:36:32.571Z,2.60
2023-01-04T04:39:00.871Z,3.70
2023-01-04T04:41:41.903Z,0.63
2023-01-04T04:44:13.837Z,2.27
2023-01-04T04:46:42.815Z,3.30
2023-01-04T04:49:12.044Z,1.17
2023-01-04T04:51:41.603Z,1.50
2023-01-04T04:54:11.636Z,1.97
2023-01-04T04:56:40.149Z,1.80
2023-01-04T04:59:08.663Z,3.00
2023-01-04T05:01:38.669Z,0.60
2023-01-04T05:04:07.556Z,1.03
2023-01-04T05:06:36.069Z,1.07
2023-01-04T05:09:07.955Z,3.70
2023-01-04T05:11:53.649Z,0.67
2023-01-04T05:14:24.581Z,0.83
2023-01-04T05:16:54.844Z,3.57
2023-01-04T05:19:23.507Z,1.63
2023-01-04T05:21:52.024Z,3.33
2023-01-04T05:24:20.432Z,2.43
2023-01-04T05:26:48.885Z,2.67
2023-01-04T05:29:31.219Z,3.13
2023-01-04T05:32:01.315Z,1.43
2023-01-04T05:34:30.015Z,1.47
2023-01-04T05:36:58.579Z,1.80
2023-01-04T05:39:27.217Z,2.30
2023-01-04T05:42:12.965Z,2.63
2023-01-04T05:44:41.218Z,2.40
2023-01-04T05:47:15.082Z,4.97
2023-01-04T05:49:44.218Z,2.23
2023-01-04T05:52:12.684Z,0.50
2023-01-04T05:54:41.507Z,2.03
2023-01-04T05:57:11.389Z,1.50
2023-01-04T05:59:42.047Z,1.60
2023-01-04T06:02:18.436Z,1.90
2023-01-04T06:04:51.548Z,1.17
2023-01-04T06:07:23.606Z,1.73
2023-01-04T06:09:52.233Z,2.53
2023-01-04T06:12:21.081Z,3.77
2023-01-04T06:14:49.703Z,1.77
2023-01-04T06:17:19.661Z,4.80
2023-01-04T06:19:48.391Z,2.73
2023-01-04T06:22:16.841Z,1.63
2023-01-04T06:24:45.425Z,3.83
2023-01-04T06:27:16.333Z,1.73
2023-01-04T06:29:46.922Z,4.10
2023-01-04T06:32:15.760Z,2.60
2023-01-04T06:34:48.692Z,2.20
2023-01-04T06:37:17.143Z,1.17
2023-01-04T06:39:45.844Z,4.67
2023-01-04T06:42:28.058Z,1.23
2023-01-04T06:44:56.667Z,1.70
2023-01-04T06:47:25.573Z,2.43
2023-01-04T06:49:55.475Z,3.53
2023-01-04T06:52:24.000Z,0.80
2023-01-04T06:54:52.586Z,4.23
2023-01-04T06:57:20.999Z,3.60
2023-01-04T06:59:49.603Z,0.80
2023-01-04T07:02:18.905Z,2.17
2023-01-04T07:04:48.095Z,2.60
2023-01-04T07:07:18.398Z,3.23
2023-01-04T07:09:47.383Z,0.70
2023-01-04T07:12:16.089Z,1.43
2023-01-04T07:14:44.849Z,0.97
2023-01-04T07:17:14.163Z,1.27
2023-01-04T07:19:42.596Z,1.53
2023-01-04T07:22:11.248Z,1.97
2023-01-04T07:24:41.732Z,1.27
2023-01-04T07:27:11.236Z,1.50
2023-01-04T07:29:43.941Z,1.87
2023-01-04T07:32:14.260Z,1.70
2023-01-04T07:34:43.406Z,1.67
2023-01-04T07:37:13.304Z,1.53
2023-01-04T07:39:43.983Z,8.00
2023-01-04T07:42:12.982Z,4.30
2023-01-04T07:44:41.861Z,1.20
2023-01-04T07:47:10.336Z,10.53
2023-01-04T07:49:38.725Z,1.10
2023-01-04T07:52:07.158Z,4.03
2023-01-04T07:54:35.916Z,4.00
2023-01-04T07:57:05.830Z,4.77
2023-01-04T07:59:34.551Z,3.33
2023-01-04T08:02:03.479Z,1.63
2023-01-04T08:04:35.106Z,0.80
2023-01-04T08:07:04.740Z,0.83
2023-01-04T08:09:33.985Z,2.33
2023-01-04T08:12:02.953Z,0.97
2023-01-04T08:14:33.169Z,1.17
2023-01-04T08:17:01.598Z,0.90
2023-01-04T08:19:30.079Z,3.10
2023-01-04T08:21:58.582Z,6.00
2023-01-04T08:24:27.580Z,3.07
2023-01-04T08:26:56.473Z,3.13
2023-01-04T08:29:28.175Z,1.13
2023-01-04T08:32:02.756Z,5.67
2023-01-04T08:34:32.579Z,4.30
2023-01-04T08:37:01.576Z,3.20
2023-01-04T08:39:35.518Z,2.10
2023-01-04T08:42:18.736Z,3.30
2023-01-04T08:44:55.576Z,1.30
2023-01-04T08:47:29.179Z,3.23
2023-01-04T08:49:58.292Z,2.73
2023-01-04T08:52:29.952Z,1.53
2023-01-04T08:54:59.194Z,2.30
2023-01-04T08:57:28.200Z,2.23
2023-01-04T08:59:57.612Z,3.20
2023-01-04T09:02:47.654Z,3.97
2023-01-04T09:05:22.401Z,2.33
2023-01-04T09:07:52.197Z,2.77
2023-01-04T09:10:21.707Z,1.70
2023-01-04T09:12:50.684Z,4.07
2023-01-04T09:15:19.422Z,3.77
2023-01-04T09:18:29.378Z,2.53
2023-01-04T09:20:39.701Z,2.53
2023-01-04T09:23:08.374Z,3.67
2023-01-04T09:25:39.829Z,6.90
2023-01-04T09:28:08.607Z,3.87
2023-01-04T09:30:37.283Z,2.47
2023-01-04T09:33:07.194Z,5.20
2023-01-04T09:35:36.354Z,3.67
2023-01-04T09:38:05.142Z,3.13
2023-01-04T09:40:41.904Z,1.23
2023-01-04T09:43:21.913Z,3.90
2023-01-04T09:45:57.589Z,2.93
2023-01-04T09:48:32.294Z,3.57
2023-01-04T09:51:05.221Z,1.43
2023-01-04T09:53:41.685Z,1.77
2023-01-04T09:56:17.754Z,5.03
2023-01-04T09:58:46.967Z,3.17
2023-01-04T10:01:20.592Z,2.33
2023-01-04T10:03:58.256Z,0.80
2023-01-04T10:06:27.277Z,2.53
2023-01-04T10:09:02.682Z,2.17
2023-01-04T10:11:45.797Z,3.63
2023-01-04T10:14:27.664Z,4.70
2023-01-04T10:17:14.651Z,1.93
2023-01-04T10:23:06.678Z,3.50
2023-01-04T10:25:43.309Z,2.70
2023-01-04T10:28:30.983Z,3.37
2023-01-04T10:31:38.571Z,3.50
2023-01-04T10:34:03.617Z,2.30
2023-01-04T10:36:34.117Z,4.60
2023-01-04T10:39:05.059Z,4.87
2023-01-04T10:41:38.540Z,8.27
2023-01-04T10:44:17.187Z,5.17
2023-01-04T10:46:53.382Z,4.33
2023-01-04T10:49:30.471Z,3.50
2023-01-04T10:52:07.337Z,4.00
2023-01-04T10:54:40.964Z,4.00
2023-01-04T10:57:15.502Z,3.50
2023-01-04T10:59:51.316Z,2.37
2023-01-04T11:02:27.628Z,5.27
2023-01-04T11:05:01.243Z,4.97
2023-01-04T11:07:40.497Z,3.73
2023-01-04T11:10:12.159Z,6.00
2023-01-04T11:12:41.236Z,5.80
2023-01-04T11:15:10.812Z,6.43
2023-01-04T11:17:39.923Z,6.70
2023-01-04T11:20:09.622Z,5.17
2023-01-04T11:22:44.064Z,2.87
2023-01-04T11:28:14.135Z,6.67
2023-01-04T11:30:51.243Z,4.27
2023-01-04T11:33:22.068Z,3.70
2023-01-04T11:35:53.771Z,4.07
2023-01-04T11:38:25.710Z,4.20
2023-01-04T11:41:02.805Z,2.93
2023-01-04T11:43:32.850Z,3.00
2023-01-04T11:46:04.640Z,4.67
2023-01-04T11:48:39.128Z,4.43
2023-01-04T11:51:17.672Z,2.37
2023-01-04T11:53:57.636Z,2.63
2023-01-04T11:56:29.442Z,3.20
2023-01-04T11:59:07.232Z,3.00
2023-01-04T12:01:37.766Z,4.57
2023-01-04T12:04:12.671Z,4.30
2023-01-04T12:06:47.275Z,4.50
2023-01-04T12:09:18.525Z,2.43
2023-01-04T12:11:51.027Z,5.23
2023-01-04T12:14:26.490Z,1.83
2023-01-04T12:17:04.331Z,3.90
2023-01-04T12:19:33.239Z,6.90
2023-01-04T12:22:04.598Z,1.97
2023-01-04T12:24:36.049Z,1.53
2023-01-04T12:27:04.737Z,1.20
2023-01-04T12:29:43.040Z,2.20
2023-01-04T12:32:41.441Z,1.90
2023-01-04T12:36:01.001Z,2.17
2023-01-04T12:38:58.771Z,1.37
2023-01-04T12:42:06.423Z,5.13
2023-01-04T12:45:12.956Z,2.60
2023-01-04T12:48:00.989Z,1.80
2023-01-04T12:50:32.243Z,1.90
2023-01-04T12:53:28.853Z,1.33
2023-01-04T12:55:55.135Z,1.93
2023-01-04T12:59:24.767Z,0.90
2023-01-04T13:01:32.805Z,1.70
2023-01-04T13:04:06.308Z,1.47
2023-01-04T13:06:43.994Z,1.33
2023-01-04T13:09:23.658Z,1.53
2023-01-04T13:12:09.516Z,0.90
2023-01-04T13:14:45.035Z,3.00
2023-01-04T13:17:24.381Z,1.40
2023-01-04T13:19:53.401Z,2.90
2023-01-04T13:22:29.571Z,1.30
2023-01-04T13:25:00.446Z,1.57
2023-01-04T13:27:29.676Z,1.40
2023-01-04T13:29:59.660Z,1.13
2023-01-04T13:32:29.814Z,1.50
2023-01-04T13:35:14.212Z,4.93
2023-01-04T13:37:45.989Z,2.03
2023-01-04T13:40:24.996Z,0.90
2023-01-04T13:43:08.208Z,1.83
2023-01-04T13:46:06.195Z,1.83
2023-01-04T13:48:38.867Z,1.53
2023-01-04T13:51:16.011Z,2.17
2023-01-04T13:53:52.570Z,1.17
2023-01-04T13:56:23.096Z,1.23
2023-01-04T13:58:51.879Z,1.20
2023-01-04T14:01:26.496Z,4.70
2023-01-04T14:03:57.266Z,1.77
2023-01-04T14:06:30.375Z,1.60
2023-01-04T14:09:06.399Z,2.73
2023-01-04T14:14:55.464Z,1.67
2023-01-04T14:17:32.092Z,3.10
2023-01-04T14:20:01.628Z,0.90
2023-01-04T14:22:42.240Z,1.20
2023-01-04T14:25:49.235Z,2.43
2023-01-04T14:28:49.563Z,2.07
2023-01-04T14:31:31.947Z,2.07
2023-01-04T14:34:13.732Z,0.70
2023-01-04T14:36:44.375Z,2.63
2023-01-04T14:39:30.914Z,1.83
2023-01-04T14:42:00.345Z,3.07
2023-01-04T14:44:32.053Z,1.13
2023-01-04T14:47:04.069Z,2.63
2023-01-04T14:49:34.414Z,1.83
2023-01-04T14:52:05.369Z,3.30
2023-01-04T14:54:35.350Z,1.80
2023-01-04T14:57:05.188Z,1.50
2023-01-04T14:59:33.898Z,1.37
2023-01-04T15:02:02.626Z,2.57
2023-01-04T15:04:31.865Z,1.70
2023-01-04T15:07:02.393Z,0.63
2023-01-04T15:09:32.059Z,5.17
2023-01-04T15:12:00.491Z,1.50
2023-01-04T15:14:29.505Z,3.80
2023-01-04T15:16:58.127Z,5.93
2023-01-04T15:19:26.693Z,2.10
2023-01-04T15:21:55.296Z,5.17
2023-01-04T15:24:25.458Z,4.83
2023-01-04T15:26:54.192Z,3.93
2023-01-04T15:29:23.190Z,4.67
2023-01-04T15:31:51.658Z,3.67
2023-01-04T15:34:23.048Z,5.53
2023-01-04T15:36:53.580Z,4.13
2023-01-04T15:39:22.639Z,8.53
2023-01-04T15:42:13.468Z,15.53
2023-01-04T15:44:42.107Z,7.57
2023-01-04T15:47:10.818Z,9.00
2023-01-04T15:49:39.434Z,5.63
2023-01-04T15:52:07.916Z,7.67
2023-01-04T15:54:36.675Z,7.03
2023-01-04T15:57:06.890Z,10.53
2023-01-04T15:59:35.456Z,8.50
2023-01-04T16:02:04.351Z,6.60
2023-01-04T16:04:33.621Z,6.37
2023-01-04T16:07:02.046Z,7.83
2023-01-04T16:09:30.845Z,6.30
2023-01-04T16:12:17.257Z,7.70
2023-01-04T16:14:47.487Z,5.43
2023-01-04T16:17:16.150Z,5.47
2023-01-04T16:19:45.087Z,4.17
2023-01-04T16:22:13.653Z,5.73
2023-01-04T16:25:09.405Z,3.30
2023-01-04T16:27:35.448Z,5.67
2023-01-04T16:30:07.346Z,9.10
2023-01-04T16:32:36.288Z,3.10
2023-01-04T16:35:06.259Z,3.10
2023-01-04T16:37:34.744Z,3.43
2023-01-04T16:40:07.633Z,1.90
2023-01-04T16:42:37.900Z,2.73
2023-01-04T16:45:09.858Z,3.20
2023-01-04T16:47:41.491Z,4.47
2023-01-04T16:50:11.282Z,4.20
2023-01-04T16:52:39.994Z,3.40
2023-01-04T16:55:09.728Z,3.07
2023-01-04T16:57:38.287Z,5.30
2023-01-04T17:00:09.609Z,4.37
2023-01-04T17:02:38.145Z,5.40
2023-01-04T17:05:07.652Z,4.87
2023-01-04T17:07:36.160Z,5.23
2023-01-04T17:10:05.897Z,13.87
2023-01-04T17:12:49.742Z,14.20
2023-01-04T17:18:12.551Z,13.17
2023-01-04T17:20:41.591Z,14.60
2023-01-04T17:23:10.309Z,10.67
2023-01-04T17:25:38.812Z,12.07
2023-01-04T17:28:07.235Z,13.87
2023-01-04T17:30:39.378Z,14.43
2023-01-04T17:33:07.979Z,11.73
2023-01-04T17:35:38.127Z,17.13
2023-01-04T17:38:08.058Z,17.80
2023-01-04T17:40:36.733Z,15.20
2023-01-04T17:43:05.665Z,16.13
2023-01-04T17:45:34.567Z,19.10
2023-01-04T17:48:08.317Z,18.03
2023-01-04T17:50:36.842Z,15.57
2023-01-04T17:53:05.415Z,14.20
2023-01-04T17:55:35.612Z,17.63
2023-01-04T17:58:07.837Z,19.77
2023-01-04T18:03:10.014Z,22.07
2023-01-04T18:05:51.230Z,19.67
2023-01-04T18:08:20.734Z,19.40
2023-01-04T18:11:06.860Z,27.50
2023-01-04T18:13:37.240Z,22.83
2023-01-04T18:16:24.014Z,22.07
2023-01-04T18:18:55.944Z,22.87
2023-01-04T18:21:28.821Z,21.37
2023-01-04T18:24:34.966Z,21.20
2023-01-04T18:27:19.938Z,23.53
2023-01-04T18:29:36.332Z,21.97
2023-01-04T18:32:05.083Z,29.60
2023-01-04T18:34:35.237Z,28.83
2023-01-04T18:37:03.706Z,34.87
2023-01-04T18:39:32.365Z,31.03
2023-01-04T18:42:00.780Z,27.80
2023-01-04T18:44:34.542Z,28.50
2023-01-04T18:47:05.019Z,35.20
2023-01-04T18:49:34.842Z,30.17
2023-01-04T18:52:03.431Z,38.10
2023-01-04T18:54:31.959Z,29.07
2023-01-04T18:57:01.444Z,27.73
2023-01-04T18:59:30.484Z,37.47
2023-01-04T19:02:02.035Z,34.63
2023-01-04T19:04:33.400Z,30.70
2023-01-04T19:07:04.088Z,33.40
2023-01-04T19:09:32.686Z,34.27
2023-01-04T19:12:01.375Z,32.60
2023-01-04T19:14:29.879Z,32.00
2023-01-04T19:16:58.399Z,39.00
2023-01-04T19:19:27.117Z,33.40
2023-01-04T19:21:55.652Z,26.50
2023-01-04T19:24:26.129Z,31.70
2023-01-04T19:26:55.390Z,36.90
2023-01-04T19:29:23.895Z,31.70
2023-01-04T19:31:52.485Z,30.37
2023-01-04T19:34:21.060Z,38.77
2023-01-04T19:36:49.836Z,30.87
2023-01-04T19:39:18.362Z,27.73
2023-01-04T19:41:48.248Z,38.23
2023-01-04T19:44:17.095Z,33.87
2023-01-04T19:46:46.371Z,28.10
2023-01-04T19:49:15.728Z,32.23
2023-01-04T19:51:46.541Z,31.83
2023-01-04T19:54:18.708Z,30.70
2023-01-04T19:56:53.307Z,39.97
2023-01-04T19:59:23.192Z,35.00
2023-01-04T20:01:52.029Z,26.07
2023-01-04T20:04:20.968Z,33.37
2023-01-04T20:06:52.304Z,32.30
2023-01-04T20:09:25.886Z,30.73
2023-01-04T20:11:56.039Z,37.23
2023-01-04T20:14:25.033Z,29.93
2023-01-04T20:16:53.982Z,35.07
2023-01-04T20:19:24.363Z,37.00
2023-01-04T20:21:52.883Z,33.63
2023-01-04T20:24:21.618Z,36.93
2023-01-04T20:26:51.178Z,26.77
2023-01-04T20:29:21.896Z,35.07
2023-01-04T20:31:51.428Z,33.17
2023-01-04T20:34:20.458Z,31.37
2023-01-04T20:36:49.258Z,30.23
2023-01-04T20:39:18.173Z,35.13
2023-01-04T20:42:00.749Z,28.20
2023-01-04T20:44:31.244Z,35.03
2023-01-04T20:46:59.937Z,30.13
2023-01-04T20:49:28.666Z,31.37
2023-01-04T20:51:57.448Z,34.77
2023-01-04T20:54:26.149Z,30.23
2023-01-04T20:56:57.741Z,35.10
2023-01-04T20:59:26.378Z,32.93
2023-01-04T21:01:56.688Z,26.73
2023-01-04T21:04:25.995Z,34.20
2023-01-04T21:06:54.724Z,35.67
2023-01-04T21:09:23.629Z,30.43
2023-01-04T21:11:52.263Z,30.20
2023-01-04T21:14:20.896Z,32.80
2023-01-04T21:16:49.460Z,30.47
2023-01-04T21:19:19.684Z,39.57
2023-01-04T21:21:48.430Z,35.73
2023-01-04T21:24:17.364Z,41.30
2023-01-04T21:26:46.059Z,38.00
2023-01-04T21:29:14.739Z,28.87
2023-01-04T21:31:43.466Z,36.27
2023-01-04T21:34:15.150Z,29.63
2023-01-04T21:36:47.209Z,32.93
2023-01-04T21:39:16.184Z,28.53
2023-01-04T21:41:48.008Z,33.20
2023-01-04T21:44:17.273Z,38.67
2023-01-04T21:46:46.028Z,38.10
2023-01-04T21:49:15.212Z,27.03
2023-01-04T21:51:44.024Z,39.43
2023-01-04T21:54:14.046Z,30.60
2023-01-04T21:56:42.897Z,30.53
2023-01-04T21:59:11.485Z,35.43
2023-01-04T22:01:40.223Z,28.80
2023-01-04T22:04:09.036Z,33.20
2023-01-04T22:06:40.491Z,37.27
2023-01-04T22:09:09.231Z,35.80
2023-01-04T22:11:41.016Z,23.80
2023-01-04T22:14:09.632Z,34.07
2023-01-04T22:16:38.352Z,36.77
2023-01-04T22:19:07.331Z,29.17
2023-01-04T22:21:36.323Z,29.97
2023-01-04T22:24:05.403Z,28.70
2023-01-04T22:26:34.474Z,33.07
2023-01-04T22:29:04.446Z,32.23
2023-01-04T22:31:33.135Z,26.77
2023-01-04T22:34:01.867Z,29.70
2023-01-04T22:36:30.823Z,34.10
2023-01-04T22:39:02.492Z,28.13
2023-01-04T22:41:31.294Z,25.90
2023-01-04T22:44:01.506Z,27.13
2023-01-04T22:46:32.449Z,29.33
2023-01-04T22:49:01.908Z,32.80
2023-01-04T22:51:31.777Z,31.37
2023-01-04T22:54:03.169Z,28.60
2023-01-04T22:56:31.720Z,29.10
2023-01-04T22:59:00.337Z,31.23
2023-01-04T23:01:32.988Z,29.93
2023-01-04T23:04:03.312Z,31.13
2023-01-04T23:06:33.187Z,27.33
2023-01-04T23:09:03.178Z,29.30
2023-01-04T23:11:33.575Z,26.83
2023-01-04T23:14:04.371Z,23.60
2023-01-04T23:16:34.428Z,33.23
2023-01-04T23:19:03.574Z,34.10
2023-01-04T23:21:33.055Z,30.17
2023-01-04T23:24:03.222Z,38.03
2023-01-04T23:26:34.438Z,25.87
2023-01-04T23:29:03.137Z,30.83
2023-01-04T23:31:34.900Z,30.00
2023-01-04T23:34:05.758Z,28.53
2023-01-04T23:36:36.004Z,35.43
2023-01-04T23:39:07.732Z,35.33
2023-01-04T23:41:48.400Z,31.30
2023-01-04T23:44:19.362Z,34.43
2023-01-04T23:46:53.246Z,28.60
2023-01-04T23:49:23.990Z,29.73
2023-01-04T23:51:53.731Z,28.17
2023-01-04T23:54:23.181Z,29.17
2023-01-04T23:56:51.616Z,34.07
2023-01-04T23:59:20.425Z,33.13
